Flight Track Log - Related Links

Times and Time Zones

All times are in EDT time to prevent confusion due to time zone crossing. See the SWA726 flight status page for this flight to view local times or setup timezone preferences in your user account.

Time Position Orientation Groundspeed Altitude Reporting Facility
EDT Latitude Longitude Course Direction KTS MPH feet Rate Location/Type
Sun 01:32:31 PM 30.2381 -97.6833 329° Northwest 188 216 2,200  Level Houston Center
Sun 01:33:33 PM 30.2911 -97.7197 329° Northwest 223 257 4,400 3,242 Climbing Houston Center
Sun 01:34:35 PM 30.3464 -97.7875 313° West 252 290 8,900 3,048 Climbing Houston Center
Sun 01:35:37 PM 30.3575 -97.8778 278° West 276 318 10,700 2,274 Climbing Houston Center
Sun 01:36:39 PM 30.3714 -97.9878 278° West 336 387 13,600 2,661 Climbing Houston Center
Sun 01:37:41 PM 30.3864 -98.0997 279° West 347 399 16,200 2,371 Climbing Houston Center
Sun 01:38:43 PM 30.4097 -98.2147 283° West 359 413 18,500 2,177 Climbing Houston Center
Sun 01:39:45 PM 30.4328 -98.3317 283° West 366 421 20,700 1,920 Climbing Houston Center
Sun 01:40:48 PM 30.4553 -98.4519 282° West 377 434 22,500 1,632 Climbing Houston Center
Sun 01:41:50 PM 30.4781 -98.5764 282° West 388 447 24,100 1,645 Climbing Houston Center
Sun 01:42:52 PM 30.5061 -98.7261 282° West 401 461 25,900 1,694 Climbing Houston Center
Sun 01:43:54 PM 30.5319 -98.8581 283° West 413 475 27,600 1,839 Climbing Houston Center
Sun 01:44:56 PM 30.5572 -98.9872 283° West 409 471 29,700 2,032 Climbing Houston Center
Sun 01:45:58 PM 30.5803 -99.1108 282° West 393 452 31,800 1,742 Climbing Houston Center
Sun 01:47:00 PM 30.6014 -99.2289 282° West 378 435 33,300 1,306 Climbing Houston Center
Sun 01:48:02 PM 30.6236 -99.3439 283° West 370 426 34,500 1,065 Climbing Houston Center
Sun 01:49:04 PM 30.6442 -99.4583 282° West 365 420 35,500 726 Climbing Houston Center
Sun 01:50:06 PM 30.6694 -99.5953 282° West 362 417 36,000 242 Climbing Houston Center
Sun 01:51:08 PM 30.6903 -99.7083 282° West 361 415 36,000  Level Houston Center
Sun 01:52:10 PM 30.7100 -99.8203 282° West 358 412 36,000  Level Houston Center
Sun 01:53:13 PM 30.7308 -99.9331 282° West 358 412 36,000  Level Houston Center
Sun 01:54:15 PM 30.7494 -100.0456 281° West 357 411 36,000  Level Houston Center
Sun 01:55:17 PM 30.7742 -100.1797 282° West 356 410 36,000  Level Houston Center
Sun 01:56:19 PM 30.7939 -100.2919 282° West 352 405 36,000  Level Houston Center
Sun 01:57:21 PM 30.8139 -100.4039 282° West 360 414 36,000  Level Houston Center
Sun 01:58:23 PM 30.8336 -100.5200 281° West 370 426 36,000  Level Houston Center
Sun 01:59:25 PM 30.8531 -100.6347 281° West 369 425 36,000  Level Houston Center
Sun 02:00:27 PM 30.8778 -100.7756 282° West 372 428 36,000  Level Houston Center
Sun 02:01:29 PM 30.8978 -100.8933 281° West 375 432 36,000 -144 Level Houston Center
Sun 02:02:32 PM 30.9178 -101.0108 281° West 373 429 35,700 -624 Descending Houston Center
Sun 02:03:34 PM 30.9369 -101.1286 281° West 374 430 34,700 -823 Descending Houston Center
Sun 02:04:36 PM 30.9606 -101.2386 284° West 357 411 34,000 -375 Descending Houston Center
Sun 02:05:42 PM 30.9806 -101.3856 279° West 368 423 33,900  Descending Albuquerque Center
Sun 02:06:44 PM 31.0006 -101.5008 281° West 366 421 34,000 48 Climbing Albuquerque Center
Sun 02:07:46 PM 31.0192 -101.6175 281° West 367 422 34,000  Level Albuquerque Center
Sun 02:08:48 PM 31.0386 -101.7333 281° West 364 419 34,000  Level Albuquerque Center
Sun 02:09:50 PM 31.0572 -101.8492 281° West 364 419 34,000  Level Albuquerque Center
Sun 02:10:52 PM 31.0797 -101.9833 281° West 365 420 34,000  Level Albuquerque Center
Sun 02:11:54 PM 31.0975 -102.1022 280° West 368 423 34,000  Level Albuquerque Center
Sun 02:12:56 PM 31.1156 -102.2206 280° West 369 425 34,000  Level Albuquerque Center
Sun 02:13:58 PM 31.1353 -102.3392 281° West 371 427 34,000  Level Albuquerque Center
Sun 02:15:00 PM 31.1547 -102.4578 281° West 371 427 34,000  Level Albuquerque Center
Sun 02:16:02 PM 31.1742 -102.5872 280° West 368 423 34,000  Level Albuquerque Center
Sun 02:17:04 PM 31.1925 -102.7053 280° West 368 423 34,000  Level Albuquerque Center
Sun 02:18:06 PM 31.2108 -102.8233 280° West 370 426 34,000 -48 Level Albuquerque Center
Sun 02:19:08 PM 31.2297 -102.9403 281° West 368 423 33,900 -48 Descending Albuquerque Center
Sun 02:20:10 PM 31.2497 -103.0800 280° West 365 420 33,900  Level Albuquerque Center
Sun 02:21:12 PM 31.2683 -103.1978 281° West 368 423 33,900 48 Level Albuquerque Center
Sun 02:22:14 PM 31.2867 -103.3150 280° West 367 422 34,000 48 Climbing Albuquerque Center
Sun 02:23:16 PM 31.3031 -103.4322 279° West 366 421 34,000 -48 Level Albuquerque Center
Sun 02:24:18 PM 31.3197 -103.5503 279° West 368 423 33,900  Descending Albuquerque Center
Sun 02:25:20 PM 31.3383 -103.6672 281° West 366 421 34,000 48 Climbing Albuquerque Center
Sun 02:26:22 PM 31.3569 -103.7928 280° West 369 425 34,000 -49 Level Albuquerque Center
Sun 02:27:23 PM 31.3731 -103.9103 279° West 368 423 33,900  Descending Albuquerque Center
Sun 02:28:25 PM 31.3908 -104.0278 280° West 368 423 34,000  Climbing Albuquerque Center
Sun 02:29:27 PM 31.4122 -104.1689 280° West 368 423 33,900 -48 Descending Albuquerque Center
Sun 02:30:29 PM 31.4289 -104.2872 279° West 369 425 33,900 48 Level Albuquerque Center
Sun 02:31:31 PM 31.4464 -104.4047 280° West 369 425 34,000 48 Climbing Albuquerque Center
Sun 02:32:33 PM 31.4603 -104.5231 278° West 369 425 34,000  Level Albuquerque Center
Sun 02:33:35 PM 31.4722 -104.6414 277° West 368 423 34,000 -629 Level Albuquerque Center
Sun 02:34:37 PM 31.4881 -104.7844 277° West 370 426 32,700 -1,742 Descending Albuquerque Center
Sun 02:35:39 PM 31.5000 -104.9003 277° West 364 419 30,400 -2,226 Descending Albuquerque Center
Sun 02:36:41 PM 31.5111 -105.0169 276° West 362 417 28,100 -2,226 Descending Albuquerque Center
Sun 02:37:43 PM 31.5236 -105.1294 277° West 354 407 25,800 -2,177 Descending Albuquerque Center
Sun 02:38:45 PM 31.5342 -105.2383 277° West 342 394 23,600 -2,098 Descending Albuquerque Center
Sun 02:39:46 PM 31.5447 -105.3489 276° West 344 396 21,500 -2,244 Descending Albuquerque Center
Sun 02:40:48 PM 31.5561 -105.4761 276° West 329 379 19,000 -2,242 Descending Albuquerque Center
Sun 02:41:17 PM 31.5594 -105.5175 275° West 324 373 18,100 -1,839 Descending Albuquerque Center
Sun 02:41:50 PM 31.5656 -105.5814 276° West 327 376 17,100 -2,203 Descending Albuquerque Center
Sun 02:42:36 PM 31.5744 -105.6658 277° West 326 375 15,200 -2,129 Descending Albuquerque Center
Sun 02:42:52 PM 31.5767 -105.6856 278° West 325 374 14,900 -2,000 Descending Albuquerque Center
Sun 02:43:36 PM 31.5850 -105.7681 277° West 320 368 13,200 -1,935 Descending Albuquerque Center
Sun 02:43:54 PM 31.5856 -105.7872 272° West 316 364 12,900 -1,967 Descending Albuquerque Center
Sun 02:44:37 PM 31.6172 -105.8597 297° West 321 369 11,200 -1,935 Descending Albuquerque Center
Sun 02:44:56 PM 31.6264 -105.8781 300° West 316 364 10,900 -1,377 Descending Albuquerque Center
Sun 02:45:38 PM 31.6614 -105.9486 300° West 314 361 9,800 -968 Descending Albuquerque Center
Sun 02:45:58 PM 31.6772 -105.9783 302° West 292 336 9,900 -400 Climbing Albuquerque Center
Sun 02:46:38 PM 31.7000 -106.0186 304° West 249 287 9,400 -871 Descending Albuquerque Center
Sun 02:47:00 PM 31.7272 -106.0239 351° North 258 297 9,000 -492 Descending Albuquerque Center
Sun 02:47:39 PM 31.7689 -106.0214 North 246 283 8,900  Descending Albuquerque Center
Sun 02:48:02 PM 31.7944 -106.0253 353° North 243 280 9,000  Climbing Albuquerque Center
Sun 02:48:39 PM 31.8233 -106.0500 324° Northwest 215 247 8,900  Descending Albuquerque Center
Sun 02:49:04 PM 31.8381 -106.0719 308° West 216 249 9,000 -787 Climbing Albuquerque Center
Sun 02:49:40 PM 31.8514 -106.1106 292° West 218 251 8,100 -1,355 Descending Albuquerque Center
Sun 02:50:06 PM 31.8589 -106.1386 287° West 217 250 7,600 -1,377 Descending Albuquerque Center
Sun 02:50:41 PM 31.8644 -106.1822 279° West 218 251 6,700 -1,161 Descending Albuquerque Center
Sun 02:51:08 PM 31.8650 -106.2086 271° West 215 247 6,400 -1,000 Descending Albuquerque Center
Sun 02:51:41 PM 31.8619 -106.2503 265° West 210 242 5,700 -774 Descending Albuquerque Center
Sun 02:52:10 PM 31.8592 -106.2908 265° West 211 243 5,600 -689 Descending Albuquerque Center
Sun 02:52:42 PM 31.8550 -106.3172 259° West 176 203 5,000 -968 Descending Albuquerque Center
Sun 02:53:12 PM 31.8458 -106.3381 243° Southwest 155 178 4,600 -700 Descending Albuquerque Center
Sun 02:53:42 PM 31.8342 -106.3550 231° Southwest 146 168 4,300 -581 Descending Albuquerque Center
Sun 02:54:14 PM 31.8178 -106.3758 227° Southwest 154 177 4,000 -563 Descending Albuquerque Center
Sun 02:56:00 PM 31.8072 -106.3764 270° West  Level Estimated
Sun 03:03:00 PM 31.8072 -106.3764 270° West  Level Estimated
Sun 03:04:00 PM 31.8072 -106.3764 270° West  Level Estimated
Sun 03:05:00 PM 31.8072 -106.3764 270° West  Level Estimated
Sun 03:06:00 PM 31.8072 -106.3764 270° West  Level Estimated

Login

Don't have an account? Register now (free) for customized features, flight alerts, and more!